createdAt,value
2018-11-02T00:00:14.967Z,0
2018-11-02T00:01:14.415Z,0
2018-11-02T00:02:15.491Z,0
2018-11-02T00:03:14.683Z,0
2018-11-02T00:04:14.702Z,0
2018-11-02T00:05:14.388Z,0
2018-11-02T00:06:14.888Z,0
2018-11-02T00:07:15.222Z,0
2018-11-02T00:08:14.405Z,0
2018-11-02T00:09:14.917Z,0
2018-11-02T00:10:14.893Z,0
2018-11-02T00:11:14.622Z,0
2018-11-02T00:12:15.488Z,0
2018-11-02T00:13:15.167Z,0
2018-11-02T00:14:14.406Z,0
2018-11-02T00:15:14.307Z,0
2018-11-02T00:16:14.312Z,0
2018-11-02T00:17:14.569Z,0
2018-11-02T00:18:14.297Z,0
2018-11-02T00:19:14.562Z,0
2018-11-02T00:20:14.544Z,0
2018-11-02T00:21:14.547Z,0
2018-11-02T00:22:14.285Z,0
2018-11-02T00:23:14.019Z,0
2018-11-02T00:24:13.988Z,0
2018-11-02T00:25:14.810Z,0
2018-11-02T00:26:14.557Z,0
2018-11-02T00:27:14.506Z,0
2018-11-02T00:28:14.567Z,0
2018-11-02T00:29:13.727Z,0
2018-11-02T00:30:14.503Z,0
2018-11-02T00:31:13.965Z,0
2018-11-02T00:32:15.068Z,0
2018-11-02T00:33:14.302Z,0
2018-11-02T00:34:14.508Z,0
2018-11-02T00:35:13.928Z,0
2018-11-02T00:36:13.930Z,0
2018-11-02T00:37:14.445Z,0
2018-11-02T00:38:14.717Z,0
2018-11-02T00:39:14.439Z,0
2018-11-02T00:40:14.414Z,0
2018-11-02T00:41:14.139Z,0
2018-11-02T00:42:14.411Z,0
2018-11-02T00:43:14.505Z,0
2018-11-02T00:44:15.943Z,0
2018-11-02T00:45:14.126Z,0
2018-11-02T00:46:14.116Z,0
2018-11-02T00:47:14.117Z,0
2018-11-02T00:48:14.121Z,0
2018-11-02T00:49:14.223Z,0
2018-11-02T00:50:13.835Z,0
2018-11-02T00:51:14.160Z,0
2018-11-02T00:52:14.356Z,0
2018-11-02T00:53:14.713Z,0
2018-11-02T00:54:14.897Z,0
2018-11-02T00:55:14.761Z,0
2018-11-02T00:56:14.094Z,0
2018-11-02T00:57:14.401Z,0
2018-11-02T00:58:14.061Z,0
2018-11-02T00:59:13.945Z,0
2018-11-02T01:00:14.332Z,0
2018-11-02T01:01:14.044Z,0
2018-11-02T01:02:14.271Z,0
2018-11-02T01:03:14.224Z,0
2018-11-02T01:04:14.256Z,0
2018-11-02T01:05:14.022Z,0
2018-11-02T01:06:13.804Z,0
2018-11-02T01:07:14.260Z,0
2018-11-02T01:08:14.269Z,0
2018-11-02T01:09:14.045Z,0
2018-11-02T01:10:14.328Z,0
2018-11-02T01:11:14.249Z,0
2018-11-02T01:12:13.993Z,0
2018-11-02T01:13:14.465Z,0
2018-11-02T01:14:14.101Z,0
2018-11-02T01:15:13.953Z,0
2018-11-02T01:16:14.350Z,0
2018-11-02T01:17:14.251Z,0
2018-11-02T01:18:14.191Z,0
2018-11-02T01:19:13.929Z,0
2018-11-02T01:20:13.909Z,0
2018-11-02T01:21:13.911Z,0
2018-11-02T01:22:14.188Z,0
2018-11-02T01:23:13.825Z,0
2018-11-02T01:24:14.813Z,0
2018-11-02T01:25:14.413Z,0
2018-11-02T01:26:14.412Z,0
2018-11-02T01:27:14.136Z,0
2018-11-02T01:28:14.154Z,0
2018-11-02T01:29:14.114Z,0
2018-11-02T01:30:13.315Z,0
2018-11-02T01:31:14.118Z,0
2018-11-02T01:32:14.105Z,0
2018-11-02T01:33:14.090Z,0
2018-11-02T01:34:13.671Z,0
2018-11-02T01:35:14.346Z,0
2018-11-02T01:36:14.345Z,0
2018-11-02T01:37:14.075Z,0
2018-11-02T01:38:14.083Z,0
2018-11-02T01:39:13.779Z,0
2018-11-02T01:40:14.333Z,0
2018-11-02T01:41:13.845Z,0
2018-11-02T01:42:13.594Z,0
2018-11-02T01:43:14.049Z,0
2018-11-02T01:44:14.331Z,0
2018-11-02T01:45:14.476Z,0
2018-11-02T01:46:13.795Z,0
2018-11-02T01:47:14.284Z,0
2018-11-02T01:48:14.095Z,0
2018-11-02T01:49:14.075Z,0
2018-11-02T01:50:13.744Z,0
2018-11-02T01:51:14.028Z,0
2018-11-02T01:52:14.045Z,0
2018-11-02T01:53:13.692Z,0
2018-11-02T01:54:13.449Z,0
2018-11-02T01:55:14.696Z,0
2018-11-02T01:56:13.942Z,0
2018-11-02T01:57:13.670Z,0
2018-11-02T01:58:13.936Z,0
2018-11-02T01:59:13.669Z,0
2018-11-02T02:00:13.960Z,0
2018-11-02T02:01:13.910Z,0
2018-11-02T02:02:13.946Z,0
2018-11-02T02:03:14.227Z,0
2018-11-02T02:04:14.217Z,0
2018-11-02T02:05:14.330Z,0
2018-11-02T02:06:13.383Z,0
2018-11-02T02:07:14.170Z,0
2018-11-02T02:08:13.635Z,0
2018-11-02T02:09:13.935Z,0
2018-11-02T02:10:13.622Z,0
2018-11-02T02:11:13.851Z,0
2018-11-02T02:12:13.828Z,0
2018-11-02T02:13:13.888Z,0
2018-11-02T02:14:13.816Z,0
2018-11-02T02:15:14.734Z,0
2018-11-02T02:16:13.902Z,0
2018-11-02T02:17:13.814Z,0
2018-11-02T02:18:14.065Z,0
2018-11-02T02:19:14.099Z,0
2018-11-02T02:20:13.790Z,0
2018-11-02T02:21:14.048Z,0
2018-11-02T02:22:13.500Z,0
2018-11-02T02:23:13.249Z,0
2018-11-02T02:24:14.050Z,0
2018-11-02T02:25:14.523Z,0
2018-11-02T02:26:14.235Z,0
2018-11-02T02:27:13.452Z,0
2018-11-02T02:28:13.739Z,0
2018-11-02T02:29:13.184Z,0
2018-11-02T02:30:13.740Z,0
2018-11-02T02:31:13.983Z,0
2018-11-02T02:32:13.466Z,0
2018-11-02T02:33:14.077Z,0
2018-11-02T02:34:13.402Z,0
2018-11-02T02:35:13.689Z,0
2018-11-02T02:36:13.124Z,0
2018-11-02T02:37:13.912Z,0
2018-11-02T02:38:13.130Z,0
2018-11-02T02:39:13.894Z,0
2018-11-02T02:40:13.398Z,0
2018-11-02T02:41:13.682Z,0
2018-11-02T02:42:13.610Z,0
2018-11-02T02:43:13.601Z,0
2018-11-02T02:44:13.977Z,0
2018-11-02T02:45:13.553Z,0
2018-11-02T02:46:13.902Z,0
2018-11-02T02:47:13.309Z,0
2018-11-02T02:48:13.316Z,0
2018-11-02T02:49:13.856Z,0
2018-11-02T02:50:13.559Z,0
2018-11-02T02:51:13.593Z,0
2018-11-02T02:52:13.550Z,0
2018-11-02T02:53:13.571Z,0
2018-11-02T02:54:13.264Z,0
2018-11-02T02:55:13.256Z,0
2018-11-02T02:56:14.322Z,0
2018-11-02T02:57:13.224Z,0
2018-11-02T02:58:13.512Z,0
2018-11-02T02:59:13.491Z,0
2018-11-02T03:00:13.487Z,0
2018-11-02T03:01:13.474Z,0
2018-11-02T03:02:12.961Z,0
2018-11-02T03:03:13.446Z,0
2018-11-02T03:04:13.220Z,0
2018-11-02T03:05:13.290Z,0
2018-11-02T03:06:13.875Z,0
2018-11-02T03:07:12.892Z,0
2018-11-02T03:08:13.717Z,0
2018-11-02T03:09:13.142Z,0
2018-11-02T03:10:13.499Z,0
2018-11-02T03:11:14.016Z,0
2018-11-02T03:12:13.673Z,0
2018-11-02T03:13:13.396Z,0
2018-11-02T03:14:13.123Z,0
2018-11-02T03:15:13.640Z,0
2018-11-02T03:16:12.819Z,0
2018-11-02T03:17:13.297Z,0
2018-11-02T03:18:13.513Z,0
2018-11-02T03:19:13.338Z,0
2018-11-02T03:20:13.100Z,0
2018-11-02T03:21:12.792Z,0
2018-11-02T03:22:13.075Z,0
2018-11-02T03:23:13.318Z,0
2018-11-02T03:24:13.325Z,0
2018-11-02T03:25:13.297Z,0
2018-11-02T03:26:12.564Z,0
2018-11-02T03:27:13.671Z,0
2018-11-02T03:28:13.559Z,0
2018-11-02T03:29:13.286Z,0
2018-11-02T03:30:13.052Z,0
2018-11-02T03:31:13.336Z,0
2018-11-02T03:32:12.738Z,0
2018-11-02T03:33:13.275Z,0
2018-11-02T03:34:13.490Z,0
2018-11-02T03:35:13.563Z,0
2018-11-02T03:36:13.510Z,0
2018-11-02T03:37:13.587Z,0
2018-11-02T03:38:13.202Z,0
2018-11-02T03:39:12.988Z,0
2018-11-02T03:40:12.923Z,0
2018-11-02T03:41:13.178Z,0
2018-11-02T03:42:12.910Z,0
2018-11-02T03:43:12.914Z,0
2018-11-02T03:44:13.190Z,0
2018-11-02T03:45:13.429Z,0
2018-11-02T03:46:13.158Z,0
2018-11-02T03:47:12.633Z,0
2018-11-02T03:48:12.900Z,0
2018-11-02T03:49:12.887Z,0
2018-11-02T03:50:13.264Z,0
2018-11-02T03:51:13.162Z,0
2018-11-02T03:52:12.931Z,0
2018-11-02T03:53:12.753Z,0
2018-11-02T03:54:12.838Z,0
2018-11-02T03:55:13.145Z,0
2018-11-02T03:56:13.677Z,0
2018-11-02T03:57:12.290Z,0
2018-11-02T03:58:12.565Z,0
2018-11-02T03:59:12.544Z,0
2018-11-02T04:00:13.361Z,0
2018-11-02T04:01:13.049Z,0
2018-11-02T04:02:12.520Z,0
2018-11-02T04:03:13.552Z,0
2018-11-02T04:04:12.490Z,0
2018-11-02T04:05:12.993Z,0
2018-11-02T04:06:13.530Z,0
2018-11-02T04:07:13.356Z,0
2018-11-02T04:08:12.492Z,0
2018-11-02T04:09:12.720Z,0
2018-11-02T04:10:12.702Z,0
2018-11-02T04:11:13.012Z,0
2018-11-02T04:12:12.714Z,0
2018-11-02T04:13:12.476Z,0
2018-11-02T04:14:12.959Z,0
2018-11-02T04:15:13.249Z,0
2018-11-02T04:16:12.661Z,0
2018-11-02T04:17:12.684Z,0
2018-11-02T04:18:12.942Z,0
2018-11-02T04:19:12.904Z,0
2018-11-02T04:20:12.640Z,0
2018-11-02T04:21:12.670Z,0
2018-11-02T04:22:12.632Z,0
2018-11-02T04:23:12.884Z,0
2018-11-02T04:24:12.651Z,0
2018-11-02T04:25:12.583Z,0
2018-11-02T04:26:12.331Z,0
2018-11-02T04:27:12.965Z,0
2018-11-02T04:28:13.650Z,0
2018-11-02T04:29:12.586Z,0
2018-11-02T04:30:12.574Z,0
2018-11-02T04:31:12.837Z,0
2018-11-02T04:32:13.115Z,0
2018-11-02T04:33:12.575Z,0
2018-11-02T04:34:12.826Z,0
2018-11-02T04:35:12.802Z,0
2018-11-02T04:36:12.790Z,0
2018-11-02T04:37:12.589Z,0
2018-11-02T04:38:13.110Z,0
2018-11-02T04:39:12.800Z,0
2018-11-02T04:40:12.510Z,0
2018-11-02T04:41:12.991Z,0
2018-11-02T04:42:12.206Z,0
2018-11-02T04:43:12.519Z,0
2018-11-02T04:44:12.506Z,0
2018-11-02T04:45:12.979Z,0
2018-11-02T04:46:12.987Z,0
2018-11-02T04:47:13.427Z,0
2018-11-02T04:48:13.694Z,0
2018-11-02T04:49:13.106Z,0
2018-11-02T04:50:12.480Z,0
2018-11-02T04:51:13.662Z,0
2018-11-02T04:52:12.466Z,0
2018-11-02T04:53:12.698Z,0
2018-11-02T04:54:12.649Z,0
2018-11-02T04:55:12.114Z,0
2018-11-02T04:56:12.127Z,0
2018-11-02T04:57:12.899Z,0
2018-11-02T04:58:12.715Z,0
2018-11-02T04:59:12.377Z,0
2018-11-02T05:00:12.604Z,0
2018-11-02T05:01:12.605Z,0
2018-11-02T05:02:12.603Z,0
2018-11-02T05:03:12.585Z,0
2018-11-02T05:04:12.583Z,0
2018-11-02T05:05:12.306Z,0
2018-11-02T05:06:12.591Z,0
2018-11-02T05:07:12.856Z,0
2018-11-02T05:08:13.072Z,0
2018-11-02T05:09:12.888Z,0
2018-11-02T05:10:12.026Z,0
2018-11-02T05:11:12.704Z,0
2018-11-02T05:12:12.064Z,0
2018-11-02T05:13:12.268Z,0
2018-11-02T05:14:12.258Z,0
2018-11-02T05:15:12.762Z,0
2018-11-02T05:16:12.524Z,0
2018-11-02T05:17:11.966Z,0
2018-11-02T05:18:12.575Z,0
2018-11-02T05:19:12.234Z,0
2018-11-02T05:20:12.479Z,0
2018-11-02T05:21:12.414Z,0
2018-11-02T05:22:12.461Z,0
2018-11-02T05:23:12.211Z,0
2018-11-02T05:24:12.475Z,0
2018-11-02T05:25:12.250Z,0
2018-11-02T05:26:12.670Z,0
2018-11-02T05:27:12.455Z,0
2018-11-02T05:28:12.451Z,0
2018-11-02T05:29:12.463Z,0
2018-11-02T05:30:12.118Z,0
2018-11-02T05:31:12.162Z,0
2018-11-02T05:32:12.633Z,0
2018-11-02T05:33:12.375Z,0
2018-11-02T05:34:12.096Z,0
2018-11-02T05:35:12.376Z,0
2018-11-02T05:36:12.654Z,0
2018-11-02T05:37:12.600Z,0
2018-11-02T05:38:12.136Z,0
2018-11-02T05:39:12.427Z,0
2018-11-02T05:40:12.083Z,0
2018-11-02T05:41:12.323Z,0
2018-11-02T05:42:12.333Z,0
2018-11-02T05:43:12.577Z,0
2018-11-02T05:44:12.576Z,0
2018-11-02T05:45:12.018Z,0
2018-11-02T05:46:12.320Z,0
2018-11-02T05:47:12.728Z,0
2018-11-02T05:48:12.579Z,0
2018-11-02T05:49:11.749Z,0
2018-11-02T05:50:12.341Z,0
2018-11-02T05:51:11.730Z,0
2018-11-02T05:52:11.994Z,0
2018-11-02T05:53:11.997Z,0
2018-11-02T05:54:12.277Z,0
2018-11-02T05:55:11.696Z,0
2018-11-02T05:56:11.997Z,0
2018-11-02T05:57:12.240Z,0
2018-11-02T05:58:12.150Z,0
2018-11-02T05:59:12.132Z,0
2018-11-02T06:00:12.175Z,0
2018-11-02T06:01:11.956Z,0
2018-11-02T06:02:11.915Z,0
2018-11-02T06:03:12.487Z,0
2018-11-02T06:04:11.652Z,0
2018-11-02T06:05:11.892Z,0
2018-11-02T06:06:11.892Z,0
2018-11-02T06:07:11.897Z,0
2018-11-02T06:08:12.238Z,0
2018-11-02T06:09:12.158Z,0
2018-11-02T06:10:12.109Z,0
2018-11-02T06:11:11.925Z,0
2018-11-02T06:12:11.346Z,0
2018-11-02T06:13:11.860Z,0
2018-11-02T06:14:12.352Z,0
2018-11-02T06:15:11.833Z,0
2018-11-02T06:16:12.083Z,0
2018-11-02T06:17:11.803Z,0
2018-11-02T06:18:12.067Z,0
2018-11-02T06:19:12.348Z,0
2018-11-02T06:20:12.343Z,0
2018-11-02T06:21:12.029Z,0
2018-11-02T06:22:12.331Z,5
2018-11-02T06:23:11.798Z,5
2018-11-02T06:24:12.688Z,5
2018-11-02T06:25:12.085Z,5
2018-11-02T06:26:11.482Z,5
2018-11-02T06:27:11.490Z,5
2018-11-02T06:28:12.008Z,5
2018-11-02T06:29:11.213Z,5
2018-11-02T06:30:12.126Z,5
2018-11-02T06:31:11.765Z,5
2018-11-02T06:32:11.700Z,5
2018-11-02T06:33:11.983Z,5
2018-11-02T06:34:11.967Z,5
2018-11-02T06:35:11.946Z,10
2018-11-02T06:36:11.430Z,10
2018-11-02T06:37:11.948Z,10
2018-11-02T06:38:11.684Z,10
2018-11-02T06:39:11.387Z,10
2018-11-02T06:40:12.491Z,10
2018-11-02T06:41:11.630Z,15
2018-11-02T06:42:11.917Z,15
2018-11-02T06:43:11.896Z,15
2018-11-02T06:44:11.963Z,15
2018-11-02T06:45:13.078Z,15
2018-11-02T06:46:11.885Z,15
2018-11-02T06:47:11.077Z,15
2018-11-02T06:48:11.610Z,15
2018-11-02T06:49:11.856Z,20
2018-11-02T06:50:11.576Z,20
2018-11-02T06:51:11.936Z,20
2018-11-02T06:52:11.562Z,20
2018-11-02T06:53:12.117Z,20
2018-11-02T06:54:11.564Z,20
2018-11-02T06:55:11.826Z,20
2018-11-02T06:56:11.570Z,20
2018-11-02T06:57:11.827Z,20
2018-11-02T06:58:11.565Z,20
2018-11-02T06:59:12.687Z,20
2018-11-02T07:00:14.306Z,25
2018-11-02T07:01:12.560Z,25
2018-11-02T07:02:11.530Z,30
2018-11-02T07:03:11.511Z,30
2018-11-02T07:04:11.807Z,35
2018-11-02T07:05:11.768Z,35
2018-11-02T07:06:11.500Z,40
2018-11-02T07:07:12.012Z,40
2018-11-02T07:08:11.657Z,45
2018-11-02T07:09:11.203Z,45
2018-11-02T07:10:11.906Z,45
2018-11-02T07:11:11.772Z,45
2018-11-02T07:12:11.988Z,50
2018-11-02T07:13:11.445Z,50
2018-11-02T07:14:11.719Z,50
2018-11-02T07:15:11.705Z,50
2018-11-02T07:16:11.671Z,50
2018-11-02T07:17:11.415Z,50
2018-11-02T07:18:11.405Z,55
2018-11-02T07:19:11.374Z,55
2018-11-02T07:20:11.611Z,55
2018-11-02T07:21:12.532Z,55
2018-11-02T07:22:11.619Z,55
2018-11-02T07:23:11.400Z,60
2018-11-02T07:24:11.659Z,60
2018-11-02T07:25:11.393Z,60
2018-11-02T07:26:11.349Z,65
2018-11-02T07:27:11.375Z,65
2018-11-02T07:28:11.083Z,65
2018-11-02T07:29:11.896Z,70
2018-11-02T07:30:11.056Z,70
2018-11-02T07:31:11.476Z,70
2018-11-02T07:32:12.094Z,75
2018-11-02T07:33:11.926Z,75
2018-11-02T07:34:12.071Z,75
2018-11-02T07:35:11.867Z,80
2018-11-02T07:36:11.302Z,85
2018-11-02T07:37:11.279Z,85
2018-11-02T07:38:11.530Z,90
2018-11-02T07:39:11.746Z,100
2018-11-02T07:40:11.557Z,105
2018-11-02T07:41:11.843Z,105
2018-11-02T07:42:11.815Z,115
2018-11-02T07:43:11.294Z,115
2018-11-02T07:44:11.278Z,120
2018-11-02T07:45:11.536Z,120
2018-11-02T07:46:11.545Z,120
2018-11-02T07:47:11.283Z,120
2018-11-02T07:48:11.208Z,120
2018-11-02T07:49:11.509Z,115
2018-11-02T07:50:11.247Z,120
2018-11-02T07:51:11.713Z,110
2018-11-02T07:52:11.676Z,105
2018-11-02T07:53:12.319Z,110
2018-11-02T07:54:11.715Z,105
2018-11-02T07:55:11.184Z,110
2018-11-02T07:56:11.202Z,115
2018-11-02T07:57:11.477Z,125
2018-11-02T07:58:11.189Z,130
2018-11-02T07:59:11.455Z,140
2018-11-02T08:00:11.485Z,135
2018-11-02T08:01:11.711Z,140
2018-11-02T08:02:11.730Z,140
2018-11-02T08:03:11.257Z,140
2018-11-02T08:04:12.540Z,140
2018-11-02T08:05:11.172Z,140
2018-11-02T08:06:11.165Z,145
2018-11-02T08:07:11.152Z,150
2018-11-02T08:08:11.131Z,150
2018-11-02T08:09:11.119Z,150
2018-11-02T08:10:11.131Z,145
2018-11-02T08:11:11.641Z,145
2018-11-02T08:12:11.124Z,150
2018-11-02T08:13:12.178Z,145
2018-11-02T08:14:11.573Z,145
2018-11-02T08:15:11.362Z,145
2018-11-02T08:16:10.826Z,145
2018-11-02T08:17:11.089Z,150
2018-11-02T08:18:11.356Z,150
2018-11-02T08:19:11.831Z,150
2018-11-02T08:20:11.343Z,165
2018-11-02T08:21:11.098Z,160
2018-11-02T08:22:11.614Z,195
2018-11-02T08:23:11.103Z,205
2018-11-02T08:24:11.598Z,180
2018-11-02T08:25:11.614Z,165
2018-11-02T08:26:11.050Z,190
2018-11-02T08:27:11.572Z,215
2018-11-02T08:28:11.319Z,180
2018-11-02T08:29:11.569Z,185
2018-11-02T08:30:11.064Z,210
2018-11-02T08:31:11.321Z,220
2018-11-02T08:32:11.486Z,210
2018-11-02T08:33:11.293Z,215
2018-11-02T08:34:11.320Z,220
2018-11-02T08:35:11.062Z,220
2018-11-02T08:36:10.779Z,225
2018-11-02T08:37:10.763Z,225
2018-11-02T08:38:11.024Z,225
2018-11-02T08:39:11.055Z,230
2018-11-02T08:40:11.032Z,205
2018-11-02T08:41:11.347Z,160
2018-11-02T08:42:11.013Z,155
2018-11-02T08:43:11.008Z,140
2018-11-02T08:44:11.265Z,130
2018-11-02T08:45:11.270Z,125
2018-11-02T08:46:11.505Z,130
2018-11-02T08:47:11.506Z,135
2018-11-02T08:48:10.997Z,135
2018-11-02T08:49:10.752Z,145
2018-11-02T08:50:10.475Z,155
2018-11-02T08:51:11.262Z,140
2018-11-02T08:52:11.781Z,140
2018-11-02T08:53:10.985Z,145
2018-11-02T08:54:10.496Z,145
2018-11-02T08:55:11.249Z,150
2018-11-02T08:56:11.220Z,145
2018-11-02T08:57:11.467Z,150
2018-11-02T08:58:12.327Z,155
2018-11-02T08:59:12.064Z,155
2018-11-02T09:00:11.303Z,155
2018-11-02T09:01:10.723Z,160
2018-11-02T09:02:11.224Z,160
2018-11-02T09:03:10.940Z,165
2018-11-02T09:04:10.947Z,170
2018-11-02T09:05:11.938Z,175
2018-11-02T09:06:10.940Z,180
2018-11-02T09:07:10.937Z,180
2018-11-02T09:08:10.681Z,180
2018-11-02T09:09:10.463Z,175
2018-11-02T09:10:10.679Z,180
2018-11-02T09:11:10.951Z,175
2018-11-02T09:12:10.743Z,175
2018-11-02T09:13:10.668Z,180
2018-11-02T09:14:11.220Z,180
2018-11-02T09:15:10.909Z,185
2018-11-02T09:16:10.661Z,195
2018-11-02T09:17:10.897Z,200
2018-11-02T09:18:10.876Z,225
2018-11-02T09:19:11.271Z,215
2018-11-02T09:20:11.163Z,230
2018-11-02T09:21:11.142Z,225
2018-11-02T09:22:10.929Z,220
2018-11-02T09:23:10.927Z,220
2018-11-02T09:24:11.468Z,205
2018-11-02T09:25:11.167Z,200
2018-11-02T09:26:10.696Z,200
2018-11-02T09:27:11.221Z,205
2018-11-02T09:28:11.472Z,210
2018-11-02T09:29:10.894Z,215
2018-11-02T09:30:11.134Z,215
2018-11-02T09:31:10.840Z,220
2018-11-02T09:32:10.621Z,220
2018-11-02T09:33:10.904Z,220
2018-11-02T09:34:10.884Z,215
2018-11-02T09:35:10.621Z,220
2018-11-02T09:36:11.429Z,210
2018-11-02T09:37:10.586Z,205
2018-11-02T09:38:11.163Z,200
2018-11-02T09:39:10.843Z,195
2018-11-02T09:40:11.549Z,190
2018-11-02T09:41:10.602Z,190
2018-11-02T09:42:11.606Z,185
2018-11-02T09:43:10.590Z,185
2018-11-02T09:44:11.114Z,185
2018-11-02T09:45:10.590Z,185
2018-11-02T09:46:11.113Z,180
2018-11-02T09:47:10.595Z,180
2018-11-02T09:48:11.420Z,180
2018-11-02T09:49:10.317Z,175
2018-11-02T09:50:10.606Z,175
2018-11-02T09:51:11.112Z,175
2018-11-02T09:52:11.922Z,170
2018-11-02T09:53:10.852Z,165
2018-11-02T09:54:10.541Z,165
2018-11-02T09:55:10.845Z,160
2018-11-02T09:56:10.307Z,155
2018-11-02T09:57:10.563Z,155
2018-11-02T09:58:10.532Z,155
2018-11-02T09:59:10.268Z,155
2018-11-02T10:00:10.532Z,160
2018-11-02T10:01:11.969Z,165
2018-11-02T10:02:11.844Z,165
2018-11-02T10:03:11.059Z,170
2018-11-02T10:04:11.082Z,175
2018-11-02T10:05:10.815Z,180
2018-11-02T10:06:11.099Z,175
2018-11-02T10:07:11.062Z,175
2018-11-02T10:08:10.794Z,170
2018-11-02T10:09:11.782Z,165
2018-11-02T10:10:11.053Z,165
2018-11-02T10:11:11.105Z,165
2018-11-02T10:12:11.268Z,170
2018-11-02T10:13:11.296Z,170
2018-11-02T10:14:11.308Z,170
2018-11-02T10:15:10.770Z,170
2018-11-02T10:16:10.782Z,170
2018-11-02T10:17:10.501Z,175
2018-11-02T10:18:11.035Z,175
2018-11-02T10:19:10.757Z,175
2018-11-02T10:20:10.493Z,180
2018-11-02T10:21:11.027Z,180
2018-11-02T10:22:11.246Z,180
2018-11-02T10:23:10.764Z,180
2018-11-02T10:24:10.725Z,180
2018-11-02T10:25:11.328Z,175
2018-11-02T10:26:10.474Z,175
2018-11-02T10:27:10.790Z,175
2018-11-02T10:28:11.957Z,175
2018-11-02T10:29:10.768Z,180
2018-11-02T10:30:10.999Z,190
2018-11-02T10:31:10.452Z,195
2018-11-02T10:32:10.608Z,195
2018-11-02T10:33:10.715Z,200
2018-11-02T10:34:10.745Z,200
2018-11-02T10:35:11.471Z,195
2018-11-02T10:36:11.119Z,195
2018-11-02T10:37:10.479Z,190
2018-11-02T10:38:10.973Z,195
2018-11-02T10:39:10.463Z,195
2018-11-02T10:40:10.458Z,200
2018-11-02T10:41:10.179Z,205
2018-11-02T10:42:11.184Z,205
2018-11-02T10:43:10.970Z,205
2018-11-02T10:44:11.100Z,205
2018-11-02T10:45:11.049Z,205
2018-11-02T10:46:10.448Z,200
2018-11-02T10:47:10.711Z,190
2018-11-02T10:48:11.285Z,185
2018-11-02T10:49:11.141Z,190
2018-11-02T10:50:10.690Z,190
2018-11-02T10:51:11.307Z,200
2018-11-02T10:52:11.054Z,205
2018-11-02T10:53:10.695Z,205
2018-11-02T10:54:10.959Z,225
2018-11-02T10:55:11.285Z,215
2018-11-02T10:56:10.158Z,220
2018-11-02T10:57:10.470Z,215
2018-11-02T10:58:11.247Z,215
2018-11-02T10:59:10.680Z,215
2018-11-02T11:00:10.941Z,230
2018-11-02T11:01:11.446Z,230
2018-11-02T11:02:11.468Z,235
2018-11-02T11:03:10.686Z,225
2018-11-02T11:04:10.696Z,220
2018-11-02T11:05:10.965Z,210
2018-11-02T11:06:10.396Z,210
2018-11-02T11:07:10.697Z,210
2018-11-02T11:08:11.213Z,220
2018-11-02T11:09:11.213Z,220
2018-11-02T11:10:10.425Z,225
2018-11-02T11:11:10.420Z,230
2018-11-02T11:12:10.770Z,215
2018-11-02T11:13:12.712Z,210
2018-11-02T11:14:10.158Z,210
2018-11-02T11:15:10.672Z,210
2018-11-02T11:16:10.692Z,210
2018-11-02T11:17:10.683Z,205
2018-11-02T11:18:10.651Z,205
2018-11-02T11:19:10.647Z,210
2018-11-02T11:20:10.650Z,205
2018-11-02T11:21:11.664Z,205
2018-11-02T11:22:10.387Z,200
2018-11-02T11:23:10.936Z,200
2018-11-02T11:24:10.938Z,200
2018-11-02T11:25:10.397Z,200
2018-11-02T11:26:10.384Z,195
2018-11-02T11:27:10.918Z,195
2018-11-02T11:28:10.383Z,195
2018-11-02T11:29:10.965Z,195
2018-11-02T11:30:10.391Z,190
2018-11-02T11:31:11.088Z,190
2018-11-02T11:32:11.167Z,190
2018-11-02T11:33:10.394Z,185
2018-11-02T11:34:10.744Z,180
2018-11-02T11:35:10.382Z,180
2018-11-02T11:36:10.689Z,175
2018-11-02T11:37:10.690Z,170
2018-11-02T11:38:10.652Z,170
2018-11-02T11:39:10.902Z,170
2018-11-02T11:40:10.406Z,170
2018-11-02T11:41:11.335Z,175
2018-11-02T11:42:10.975Z,175
2018-11-02T11:43:10.402Z,175
2018-11-02T11:44:10.622Z,175
2018-11-02T11:45:10.930Z,180
2018-11-02T11:46:11.009Z,180
2018-11-02T11:47:10.930Z,180
2018-11-02T11:48:10.355Z,175
2018-11-02T11:49:11.480Z,175
2018-11-02T11:50:10.358Z,175
2018-11-02T11:51:11.102Z,175
2018-11-02T11:52:10.876Z,170
2018-11-02T11:53:10.921Z,170
2018-11-02T11:54:10.709Z,165
2018-11-02T11:55:10.610Z,160
2018-11-02T11:56:10.627Z,155
2018-11-02T11:57:10.338Z,150
2018-11-02T11:58:10.624Z,150
2018-11-02T11:59:11.166Z,145
2018-11-02T12:00:10.628Z,140
2018-11-02T12:01:10.949Z,140
2018-11-02T12:02:10.867Z,140
2018-11-02T12:03:10.590Z,135
2018-11-02T12:04:10.399Z,135
2018-11-02T12:05:11.254Z,135
2018-11-02T12:06:10.653Z,135
2018-11-02T12:07:11.128Z,135
2018-11-02T12:08:10.318Z,135
2018-11-02T12:09:11.019Z,130
2018-11-02T12:10:10.968Z,130
2018-11-02T12:11:11.586Z,125
2018-11-02T12:12:10.870Z,125
2018-11-02T12:13:10.882Z,120
2018-11-02T12:14:10.331Z,120
2018-11-02T12:15:10.855Z,120
2018-11-02T12:16:11.465Z,120
2018-11-02T12:17:10.846Z,120
2018-11-02T12:18:10.590Z,120
2018-11-02T12:19:10.628Z,120
2018-11-02T12:20:10.317Z,120
2018-11-02T12:21:10.753Z,120
2018-11-02T12:22:11.411Z,125
2018-11-02T12:23:10.339Z,120
2018-11-02T12:24:10.856Z,120
2018-11-02T12:25:10.578Z,120
2018-11-02T12:26:11.102Z,120
2018-11-02T12:27:10.608Z,115
2018-11-02T12:28:11.429Z,115
2018-11-02T12:29:10.571Z,110
2018-11-02T12:30:10.553Z,105
2018-11-02T12:31:10.830Z,100
2018-11-02T12:32:11.084Z,100
2018-11-02T12:33:10.284Z,100
2018-11-02T12:34:10.333Z,95
2018-11-02T12:35:10.291Z,95
2018-11-02T12:36:10.543Z,95
2018-11-02T12:37:11.396Z,95
2018-11-02T12:38:10.562Z,95
2018-11-02T12:39:10.839Z,95
2018-11-02T12:40:10.829Z,95
2018-11-02T12:41:10.606Z,95
2018-11-02T12:42:10.777Z,95
2018-11-02T12:43:10.324Z,95
2018-11-02T12:44:11.123Z,95
2018-11-02T12:45:10.798Z,95
2018-11-02T12:46:10.257Z,95
2018-11-02T12:47:10.251Z,95
2018-11-02T12:48:11.819Z,95
2018-11-02T12:49:11.608Z,95
2018-11-02T12:50:10.625Z,95
2018-11-02T12:51:10.513Z,95
2018-11-02T12:52:11.062Z,95
2018-11-02T12:53:10.792Z,100
2018-11-02T12:54:10.601Z,100
2018-11-02T12:55:10.531Z,100
2018-11-02T12:56:10.758Z,95
2018-11-02T12:57:11.165Z,95
2018-11-02T12:58:10.495Z,95
2018-11-02T12:59:10.540Z,95
2018-11-02T13:00:10.739Z,95
2018-11-02T13:01:10.784Z,95
2018-11-02T13:02:11.176Z,95
2018-11-02T13:03:11.297Z,95
2018-11-02T13:04:11.022Z,95
2018-11-02T13:05:10.276Z,90
2018-11-02T13:06:10.744Z,90
2018-11-02T13:07:10.936Z,90
2018-11-02T13:08:11.082Z,85
2018-11-02T13:09:10.511Z,80
2018-11-02T13:10:11.016Z,80
2018-11-02T13:11:10.481Z,80
2018-11-02T13:12:10.639Z,80
2018-11-02T13:13:10.970Z,80
2018-11-02T13:14:11.050Z,80
2018-11-02T13:15:10.725Z,85
2018-11-02T13:16:10.968Z,90
2018-11-02T13:17:10.219Z,95
2018-11-02T13:18:11.183Z,95
2018-11-02T13:19:11.364Z,95
2018-11-02T13:20:10.458Z,95
2018-11-02T13:21:11.021Z,95
2018-11-02T13:22:11.303Z,95
2018-11-02T13:23:11.049Z,90
2018-11-02T13:24:10.778Z,90
2018-11-02T13:25:10.775Z,85
2018-11-02T13:26:12.544Z,80
2018-11-02T13:27:10.162Z,80
2018-11-02T13:28:10.683Z,75
2018-11-02T13:29:10.705Z,75
2018-11-02T13:30:11.684Z,75
2018-11-02T13:31:11.335Z,75
2018-11-02T13:32:11.029Z,75
2018-11-02T13:33:10.636Z,75
2018-11-02T13:34:10.672Z,75
2018-11-02T13:35:10.678Z,75
2018-11-02T13:36:10.508Z,70
2018-11-02T13:37:10.808Z,70
2018-11-02T13:38:10.666Z,70
2018-11-02T13:39:10.424Z,70
2018-11-02T13:40:10.407Z,65
2018-11-02T13:41:10.379Z,65
2018-11-02T13:42:10.731Z,65
2018-11-02T13:43:11.700Z,60
2018-11-02T13:44:10.646Z,60
2018-11-02T13:45:10.908Z,60
2018-11-02T13:46:10.365Z,65
2018-11-02T13:47:10.652Z,65
2018-11-02T13:48:10.346Z,65
2018-11-02T13:49:10.088Z,70
2018-11-02T13:50:12.677Z,70
2018-11-02T13:51:10.636Z,70
2018-11-02T13:52:10.070Z,70
2018-11-02T13:53:10.547Z,70
2018-11-02T13:54:10.880Z,70
2018-11-02T13:55:10.881Z,70
2018-11-02T13:56:10.389Z,70
2018-11-02T13:57:10.398Z,65
2018-11-02T13:58:09.801Z,65
2018-11-02T13:59:09.834Z,60
2018-11-02T14:00:10.996Z,60
2018-11-02T14:01:10.809Z,60
2018-11-02T14:02:10.620Z,60
2018-11-02T14:03:10.907Z,60
2018-11-02T14:04:11.062Z,60
2018-11-02T14:05:10.321Z,60
2018-11-02T14:06:10.582Z,60
2018-11-02T14:07:10.301Z,60
2018-11-02T14:08:10.837Z,60
2018-11-02T14:09:09.763Z,60
2018-11-02T14:10:10.302Z,55
2018-11-02T14:11:10.609Z,55
2018-11-02T14:12:10.355Z,55
2018-11-02T14:13:10.087Z,55
2018-11-02T14:14:11.394Z,55
2018-11-02T14:15:10.311Z,50
2018-11-02T14:16:10.354Z,50
2018-11-02T14:17:10.288Z,50
2018-11-02T14:18:10.586Z,55
2018-11-02T14:19:10.550Z,50